Time;durP1;ratioP1;P1;durP2;ratioP2;P2;SDS_P1;SDS_P2;PMS_P1;PMS_P2;Temp;Humidity;BMP_temperature;BMP_pressure;BME280_temperature;BME280_humidity;BME280_pressure;Samples;Min_cycle;Max_cycle;Signal;HPM_P1;HPM_P2
2022/11/18 00:02:31;;;;;;;4.78;2.53;;;7.40;99.90;;;;;;4770165;29;20149;-88
2022/11/18 00:05:05;;;;;;;5.90;2.60;;;7.90;99.90;;;;;;4770787;29;20131;-88
2022/11/18 00:07:37;;;;;;;5.20;2.53;;;7.90;99.90;;;;;;4784881;29;20070;-88
2022/11/18 00:10:03;;;;;;;3.50;2.50;;;;;;;;;;4779843;29;20073;-88
2022/11/18 00:15:13;;;;;;;4.20;2.70;;;7.80;99.90;;;;;;4798685;29;20122;-88
2022/11/18 00:17:42;;;;;;;5.93;2.70;;;6.30;99.90;;;;;;4775338;29;20171;-88
2022/11/18 00:20:10;;;;;;;4.30;2.47;;;7.00;99.90;;;;;;4804520;29;20061;-88
2022/11/18 00:22:36;;;;;;;6.05;2.80;;;7.60;99.90;;;;;;4792096;29;20054;-88
2022/11/18 00:25:08;;;;;;;4.47;2.60;;;7.70;99.90;;;;;;4793639;29;20489;-87
2022/11/18 00:27:34;;;;;;;4.07;2.28;;;8.50;99.90;;;;;;4789127;29;20144;-88
2022/11/18 00:30:10;;;;;;;8.65;2.75;;;7.60;99.90;;;;;;4801522;29;20484;-88
2022/11/18 00:32:38;;;;;;;;;;;7.60;99.90;;;;;;4785529;29;20153;-87
2022/11/18 00:35:04;;;;;;;5.80;2.70;;;7.50;99.90;;;;;;4786274;29;19933;-87
2022/11/18 00:37:33;;;;;;;6.10;2.55;;;7.40;99.90;;;;;;4773409;29;20082;-88
2022/11/18 00:40:08;;;;;;;5.57;2.70;;;7.50;99.90;;;;;;4790470;29;20165;-87
2022/11/18 00:42:52;;;;;;;6.55;2.90;;;7.50;99.90;;;;;;4784280;29;20104;-86
2022/11/18 00:45:22;;;;;;;6.07;3.20;;;7.40;99.90;;;;;;4796241;29;20050;-88
2022/11/18 00:47:48;;;;;;;5.93;3.15;;;7.40;99.90;;;;;;4787077;29;20062;-88
2022/11/18 00:50:23;;;;;;;7.20;2.92;;;7.40;99.90;;;;;;4785599;29;20050;-89
2022/11/18 00:52:50;;;;;;;6.78;3.10;;;;;;;;;;4802286;29;20114;-87
2022/11/18 00:55:16;;;;;;;5.20;3.10;;;7.40;99.90;;;;;;4806376;29;20066;-87
2022/11/18 00:57:44;;;;;;;7.10;2.70;;;7.80;99.90;;;;;;4772402;29;20103;-87
2022/11/18 01:00:10;;;;;;;4.70;3.15;;;7.50;99.90;;;;;;4789898;29;20095;-88
2022/11/18 01:02:40;;;;;;;6.40;3.10;;;7.60;99.90;;;;;;4790214;29;20125;-88
2022/11/18 01:05:07;;;;;;;4.50;3.05;;;7.50;99.90;;;;;;4770549;29;20401;-89
2022/11/18 01:07:33;;;;;;;4.95;2.95;;;7.50;99.90;;;;;;4803415;29;20046;-89
2022/11/18 01:10:02;;;;;;;5.88;3.13;;;7.60;99.90;;;;;;4783268;29;20050;-89
2022/11/18 01:15:12;;;;;;;5.88;2.97;;;7.60;99.90;;;;;;4798556;29;20096;-90
2022/11/18 01:17:40;;;;;;;6.32;3.10;;;7.30;99.90;;;;;;4784799;29;20070;-89
2022/11/18 01:20:06;;;;;;;5.35;3.53;;;7.50;99.90;;;;;;4769106;29;20058;-88
2022/11/18 01:22:32;;;;;;;5.88;3.13;;;7.40;99.90;;;;;;4781684;29;20484;-88
2022/11/18 01:25:10;;;;;;;5.50;3.22;;;7.50;99.90;;;;;;4800278;29;20061;-89
2022/11/18 01:27:42;;;;;;;4.60;2.70;;;7.50;99.90;;;;;;4797680;29;20049;-89
2022/11/18 01:30:10;;;;;;;6.32;3.33;;;7.40;99.90;;;;;;4799955;29;20065;-87
2022/11/18 01:32:36;;;;;;;7.47;2.95;;;7.30;99.90;;;;;;4799496;29;20054;-88
2022/11/18 01:35:03;;;;;;;7.10;3.00;;;6.20;99.90;;;;;;4772682;29;20054;-86
2022/11/18 01:37:29;;;;;;;7.25;3.10;;;7.40;99.90;;;;;;4784064;29;20187;-88
2022/11/18 01:39:54;;;;;;;6.07;3.17;;;7.20;99.90;;;;;;4783579;29;20137;-87
2022/11/18 01:42:25;;;;;;;8.98;3.50;;;7.40;99.90;;;;;;4784694;29;20050;-88
2022/11/18 01:45:03;;;;;;;10.35;3.50;;;7.40;99.90;;;;;;4798598;29;20073;-89
2022/11/18 01:47:34;;;;;;;7.00;3.70;;;7.20;99.90;;;;;;4785338;29;20103;-88
2022/11/18 01:50:01;;;;;;;7.72;3.67;;;7.40;99.90;;;;;;4785027;29;20065;-89
2022/11/18 01:52:27;;;;;;;10.30;3.92;;;5.80;99.90;;;;;;4781847;29;20663;-88
2022/11/18 01:54:59;;;;;;;6.13;3.50;;;8.30;99.90;;;;;;4778416;29;20055;-88
2022/11/18 01:57:37;;;;;;;5.90;3.42;;;6.90;99.90;;;;;;4781795;29;20043;-89
2022/11/18 02:00:05;;;;;;;5.53;3.92;;;7.30;99.90;;;;;;4797476;29;20090;-88
2022/11/18 02:02:36;;;;;;;7.28;3.85;;;7.20;99.90;;;;;;4797125;29;20062;-89
2022/11/18 02:05:09;;;;;;;7.38;4.07;;;7.20;99.90;;;;;;4787732;29;20054;-87
2022/11/18 02:07:40;;;;;;;7.97;4.13;;;7.20;99.90;;;;;;4782254;29;20247;-89
2022/11/18 02:10:07;;;;;;;7.22;4.47;;;7.50;99.90;;;;;;4798318;29;20057;-88
2022/11/18 02:12:46;;;;;;;8.52;4.22;;;7.90;99.90;;;;;;4782703;29;20476;-88
2022/11/18 02:15:16;;;;;;;9.02;4.97;;;7.20;99.90;;;;;;4798490;29;20073;-89
2022/11/18 02:18:22;;;;;;;7.55;4.70;;;7.20;99.90;;;;;;4796998;29;20404;-88
2022/11/18 02:20:54;;;;;;;7.93;4.80;;;7.10;99.90;;;;;;4784295;29;20061;-88
2022/11/18 02:23:35;;;;;;;9.45;6.18;;;7.00;99.90;;;;;;4798420;29;20058;-88
2022/11/18 02:26:41;;;;;;;10.75;6.65;;;7.00;99.90;;;;;;4799258;29;20064;-87
2022/11/18 02:29:14;;;;;;;8.95;6.85;;;5.70;99.90;;;;;;4796446;29;20050;-88
2022/11/18 02:32:14;;;;;;;12.40;7.40;;;7.00;99.90;;;;;;4782016;29;20046;-89
2022/11/18 02:35:26;;;;;;;10.05;6.97;;;7.00;99.90;;;;;;4777933;29;20164;-86
2022/11/18 02:37:58;;;;;;;10.65;7.28;;;6.90;99.90;;;;;;4766276;29;20134;-86
2022/11/18 02:40:31;;;;;;;12.32;7.60;;;7.10;99.90;;;;;;4795597;29;20059;-88
2022/11/18 02:43:08;;;;;;;14.02;8.55;;;7.10;99.90;;;;;;4796736;29;20055;-86
2022/11/18 02:45:37;;;;;;;11.13;8.98;;;7.40;99.90;;;;;;4799571;29;20062;-86
2022/11/18 02:48:10;;;;;;;15.45;9.32;;;7.10;99.90;;;;;;4784608;29;20070;-87
2022/11/18 02:50:38;;;;;;;12.88;9.25;;;6.10;99.90;;;;;;4779155;29;20125;-87
2022/11/18 02:53:11;;;;;;;12.70;9.68;;;7.00;99.90;;;;;;4785190;29;20211;-87
2022/11/18 02:55:58;;;;;;;14.88;10.45;;;8.20;99.90;;;;;;4778464;29;20047;-87
2022/11/18 02:58:25;;;;;;;14.18;11.18;;;6.90;99.90;;;;;;4801183;29;20069;-86
2022/11/18 03:00:58;;;;;;;14.48;11.73;;;7.00;99.90;;;;;;4784588;29;20110;-88
2022/11/18 03:03:30;;;;;;;17.30;11.55;;;6.80;99.90;;;;;;4785503;29;20122;-87
2022/11/18 03:06:10;;;;;;;16.60;12.20;;;6.90;99.90;;;;;;4797706;29;20134;-87
2022/11/18 03:09:14;;;;;;;19.20;12.30;;;6.80;99.90;;;;;;4801461;29;20133;-87
2022/11/18 03:11:54;;;;;;;19.55;12.32;;;6.90;99.90;;;;;;4798563;29;20062;-87
2022/11/18 03:14:31;;;;;;;16.40;12.50;;;7.00;99.90;;;;;;4786285;29;20074;-86
2022/11/18 03:17:33;;;;;;;17.58;13.13;;;7.10;99.90;;;;;;4797362;29;20129;-87
2022/11/18 03:20:32;;;;;;;17.83;12.70;;;6.90;99.90;;;;;;4810748;29;20054;-88
2022/11/18 03:23:26;;;;;;;18.98;12.60;;;6.90;99.90;;;;;;4796644;29;20046;-87
2022/11/18 03:26:06;;;;;;;22.15;14.88;;;7.00;99.90;;;;;;4797752;29;20065;-87
2022/11/18 03:28:43;;;;;;;20.13;14.10;;;8.00;99.90;;;;;;4780185;29;20062;-87
2022/11/18 03:31:25;;;;;;;21.58;14.27;;;7.90;99.90;;;;;;4781104;29;20059;-87
2022/11/18 03:34:05;;;;;;;23.38;15.27;;;6.90;99.90;;;;;;4781422;29;20429;-87
2022/11/18 03:36:36;;;;;;;25.48;14.95;;;7.00;99.90;;;;;;4796875;29;20074;-88
2022/11/18 03:39:08;;;;;;;24.92;16.02;;;7.20;99.90;;;;;;4780804;29;20085;-87
2022/11/18 03:41:43;;;;;;;22.73;15.75;;;6.90;99.90;;;;;;4787396;29;20051;-86
2022/11/18 03:44:22;;;;;;;22.13;14.23;;;7.00;99.90;;;;;;4804908;29;20065;-87
2022/11/18 03:47:03;;;;;;;25.80;15.65;;;7.10;99.90;;;;;;4805147;29;20513;-86
2022/11/18 03:49:43;;;;;;;24.95;16.08;;;7.10;99.90;;;;;;4804257;29;20059;-87
2022/11/18 03:52:33;;;;;;;24.75;16.05;;;7.20;99.90;;;;;;4797786;29;20088;-87
2022/11/18 03:55:03;;;;;;;28.83;17.25;;;7.10;99.90;;;;;;4798128;29;20058;-87
2022/11/18 03:58:00;;;;;;;27.27;16.58;;;7.20;99.90;;;;;;4799339;29;20050;-88
2022/11/18 04:00:32;;;;;;;30.30;17.58;;;7.30;99.90;;;;;;4801464;29;20595;-87
2022/11/18 04:02:58;;;;;;;29.10;18.08;;;7.20;99.90;;;;;;4798672;29;20050;-87
2022/11/18 04:05:31;;;;;;;29.58;16.95;;;7.40;99.90;;;;;;4800059;29;20051;-86
2022/11/18 04:08:01;;;;;;;28.70;17.60;;;7.20;99.90;;;;;;4785338;29;20545;-87
2022/11/18 04:10:57;;;;;;;28.88;17.05;;;7.30;99.90;;;;;;4785662;29;20137;-85
2022/11/18 04:13:35;;;;;;;32.90;18.00;;;7.40;99.90;;;;;;4800329;29;20115;-87
2022/11/18 04:16:04;;;;;;;33.15;18.23;;;7.50;99.90;;;;;;4798133;29;20248;-86
2022/11/18 04:18:32;;;;;;;31.67;17.35;;;8.10;99.90;;;;;;4780174;29;20515;-87
2022/11/18 04:21:01;;;;;;;34.08;18.02;;;7.90;99.90;;;;;;4785806;29;20502;-86
2022/11/18 04:23:27;;;;;;;30.00;18.15;;;7.40;99.90;;;;;;4800943;29;20101;-87
2022/11/18 04:25:55;;;;;;;33.40;18.08;;;7.30;99.90;;;;;;4800232;29;20287;-88
2022/11/18 04:28:21;;;;;;;29.73;17.88;;;7.30;99.90;;;;;;4774048;29;20054;-86
2022/11/18 04:30:49;;;;;;;31.25;19.38;;;7.40;99.90;;;;;;4785682;29;20054;-87
2022/11/18 04:33:15;;;;;;;31.55;18.35;;;7.70;99.90;;;;;;4798843;29;20059;-88
2022/11/18 04:35:41;;;;;;;31.75;18.75;;;7.50;99.90;;;;;;4768672;29;20059;-86
2022/11/18 04:38:10;;;;;;;27.65;17.50;;;6.00;99.90;;;;;;4786516;29;20402;-87
2022/11/18 04:40:36;;;;;;;34.42;19.40;;;7.00;99.90;;;;;;4794713;29;20055;-87
2022/11/18 04:43:07;;;;;;;34.85;19.15;;;7.60;99.90;;;;;;4769768;29;20058;-88
2022/11/18 04:45:33;;;;;;;32.35;17.90;;;7.70;99.90;;;;;;4766717;29;20149;-87
2022/11/18 04:47:59;;;;;;;33.13;18.52;;;7.80;99.90;;;;;;4798732;29;20084;-87
2022/11/18 04:50:33;;;;;;;32.92;18.08;;;9.20;99.90;;;;;;4767999;29;20463;-87
2022/11/18 04:53:04;;;;;;;32.75;18.90;;;6.70;99.90;;;;;;4797236;29;20051;-86
2022/11/18 04:55:30;;;;;;;30.05;19.20;;;7.50;99.90;;;;;;4782019;29;20137;-87
2022/11/18 04:58:11;;;;;;;32.75;19.40;;;7.70;99.90;;;;;;4778313;29;20533;-87
2022/11/18 05:00:37;;;;;;;35.03;19.23;;;7.60;99.90;;;;;;4796428;29;20159;-88
2022/11/18 05:03:03;;;;;;;31.27;19.05;;;7.80;99.90;;;;;;4781315;29;20066;-87
2022/11/18 05:05:28;;;;;;;35.63;19.08;;;7.60;99.90;;;;;;4779930;29;20050;-87
2022/11/18 05:07:54;;;;;;;35.50;20.92;;;7.60;99.90;;;;;;4783555;29;20238;-87
2022/11/18 05:10:23;;;;;;;36.92;20.27;;;7.70;99.90;;;;;;4772525;29;20510;-87
2022/11/18 05:12:49;;;;;;;34.63;19.30;;;7.90;99.90;;;;;;4797903;29;20039;-87
2022/11/18 05:15:17;;;;;;;37.78;19.70;;;7.80;99.90;;;;;;4769056;29;20148;-86
2022/11/18 05:17:52;;;;;;;31.48;18.52;;;7.90;99.90;;;;;;4781483;29;20039;-87
2022/11/18 05:20:20;;;;;;;31.33;18.83;;;7.50;99.90;;;;;;4796442;29;20069;-87
2022/11/18 05:22:48;;;;;;;33.17;19.55;;;7.70;99.90;;;;;;4798450;29;20087;-86
2022/11/18 05:25:14;;;;;;;32.00;19.10;;;7.80;99.90;;;;;;4754981;29;20075;-87
2022/11/18 05:27:42;;;;;;;32.15;19.23;;;7.70;99.90;;;;;;4782282;29;20219;-86
2022/11/18 05:30:31;;;;;;;32.70;19.10;;;7.90;99.90;;;;;;4787534;29;20062;-87
2022/11/18 05:33:01;;;;;;;32.85;18.25;;;7.70;99.90;;;;;;4782799;29;20078;-87
2022/11/18 05:35:30;;;;;;;31.60;18.52;;;7.60;99.90;;;;;;4782099;29;20159;-87
2022/11/18 05:37:56;;;;;;;31.98;19.30;;;7.70;99.90;;;;;;4797536;29;20104;-87
2022/11/18 05:40:22;;;;;;;30.55;18.90;;;7.10;99.90;;;;;;4788111;29;20074;-88
2022/11/18 05:43:19;;;;;;;31.23;18.98;;;8.00;99.90;;;;;;4785288;29;20055;-87
2022/11/18 05:45:45;;;;;;;33.13;18.35;;;7.60;99.90;;;;;;4788738;29;20845;-87
2022/11/18 05:48:10;;;;;;;34.92;20.00;;;7.90;99.90;;;;;;4770571;29;20047;-87
2022/11/18 05:50:40;;;;;;;36.45;20.55;;;7.60;99.90;;;;;;4786918;29;20161;-87
2022/11/18 05:53:06;;;;;;;33.70;19.45;;;8.60;99.90;;;;;;4800687;29;20516;-87
2022/11/18 05:55:46;;;;;;;28.40;19.10;;;7.70;99.90;;;;;;4784801;29;20042;-87
2022/11/18 05:58:12;;;;;;;34.88;20.10;;;7.80;99.90;;;;;;4786804;29;20046;-87
2022/11/18 06:00:39;;;;;;;32.80;18.92;;;6.60;99.90;;;;;;4789339;29;20115;-86
2022/11/18 06:03:29;;;;;;;;;;;;;;;;;;;;;
2022/11/18 06:05:59;;;;;;;30.67;18.60;;;7.60;99.90;;;;;;4799499;29;20190;-86
2022/11/18 06:08:34;;;;;;;31.40;20.02;;;7.70;99.90;;;;;;4815514;29;20147;-87
2022/11/18 06:11:03;;;;;;;34.35;20.13;;;7.70;99.90;;;;;;4785027;29;20058;-87
2022/11/18 06:13:49;;;;;;;31.33;18.88;;;7.70;99.90;;;;;;4810413;29;20050;-88
2022/11/18 06:16:28;;;;;;;31.88;19.33;;;7.70;99.90;;;;;;4802896;29;20109;-86
2022/11/18 06:18:59;;;;;;;30.42;19.25;;;7.60;99.90;;;;;;4801245;29;20333;-85
2022/11/18 06:21:25;;;;;;;32.33;17.83;;;7.50;99.90;;;;;;4802946;29;20053;-86
2022/11/18 06:23:55;;;;;;;32.38;18.17;;;7.60;99.90;;;;;;4804182;29;20061;-88
2022/11/18 06:26:24;;;;;;;32.88;19.50;;;7.60;99.90;;;;;;4792287;29;20057;-86
2022/11/18 06:28:50;;;;;;;34.40;19.27;;;6.70;99.90;;;;;;4784305;29;20058;-86
2022/11/18 06:31:24;;;;;;;36.60;20.25;;;7.80;99.90;;;;;;4785453;29;20054;-87
2022/11/18 06:33:54;;;;;;;27.75;16.92;;;7.70;99.90;;;;;;4789116;29;20157;-88
2022/11/18 06:36:25;;;;;;;31.27;18.70;;;7.60;99.90;;;;;;4801335;29;20470;-86
2022/11/18 06:38:51;;;;;;;35.72;18.20;;;;;;;;;;4787768;29;20058;-87
2022/11/18 06:41:38;;;;;;;35.83;19.55;;;7.60;99.90;;;;;;4803959;29;20057;-86
2022/11/18 06:44:10;;;;;;;31.55;18.55;;;7.70;99.90;;;;;;4772488;29;20250;-87
2022/11/18 06:46:58;;;;;;;30.02;19.05;;;7.60;99.90;;;;;;4799718;29;20210;-85
2022/11/18 06:49:29;;;;;;;30.13;18.35;;;7.80;99.90;;;;;;4805039;29;20050;-87
2022/11/18 06:51:55;;;;;;;30.70;18.05;;;7.70;99.90;;;;;;4788284;29;20409;-87
2022/11/18 06:54:21;;;;;;;32.78;18.85;;;6.60;99.90;;;;;;4778244;29;20046;-86
2022/11/18 06:56:47;;;;;;;31.98;19.52;;;7.60;99.90;;;;;;4802291;29;20050;-88
2022/11/18 06:59:20;;;;;;;30.48;18.15;;;7.60;99.90;;;;;;4787306;29;20083;-86
2022/11/18 07:01:51;;;;;;;30.95;17.83;;;8.70;99.90;;;;;;4802532;29;20557;-87
2022/11/18 07:04:20;;;;;;;32.15;19.25;;;7.50;99.90;;;;;;4769997;29;20070;-87
2022/11/18 07:06:46;;;;;;;33.28;19.27;;;7.80;99.90;;;;;;4803804;29;20137;-88
2022/11/18 07:09:15;;;;;;;32.88;19.00;;;7.70;99.90;;;;;;4785237;29;20181;-87
2022/11/18 07:11:40;;;;;;;29.27;18.42;;;7.70;99.90;;;;;;4798833;29;20174;-87
2022/11/18 07:14:14;;;;;;;30.83;18.65;;;7.70;99.90;;;;;;4805183;29;20046;-86
2022/11/18 07:16:43;;;;;;;33.28;18.73;;;7.50;99.90;;;;;;4806039;29;20111;-86
2022/11/18 07:19:20;;;;;;;;;;;;;;;;;;;;;
2022/11/18 07:21:47;;;;;;;28.88;18.05;;;7.50;99.90;;;;;;4805761;29;20062;-87
2022/11/18 07:24:14;;;;;;;30.35;18.50;;;7.50;99.90;;;;;;4787871;29;20137;-87
2022/11/18 07:26:42;;;;;;;31.27;18.85;;;7.60;99.90;;;;;;4800443;29;20042;-86
2022/11/18 07:29:14;;;;;;;30.63;17.27;;;6.80;99.90;;;;;;4817185;29;20297;-87
2022/11/18 07:31:40;;;;;;;30.92;18.52;;;7.50;99.90;;;;;;4785928;29;20050;-86
2022/11/18 07:34:08;;;;;;;26.92;18.08;;;8.50;99.90;;;;;;4798759;29;20118;-87
2022/11/18 07:36:36;;;;;;;33.45;18.83;;;7.60;99.90;;;;;;4785646;29;20048;-86
2022/11/18 07:39:05;;;;;;;30.67;18.27;;;7.50;99.90;;;;;;4801563;29;20058;-87
2022/11/18 07:41:36;;;;;;;28.83;17.85;;;7.50;99.90;;;;;;4801845;29;20168;-87
2022/11/18 07:44:03;;;;;;;30.15;18.83;;;7.70;99.90;;;;;;4785573;29;20504;-88
2022/11/18 07:46:35;;;;;;;29.80;17.67;;;7.50;99.90;;;;;;4801762;29;20933;-87
2022/11/18 07:49:10;;;;;;;29.80;16.92;;;7.50;99.90;;;;;;4802826;29;20102;-86
2022/11/18 07:51:38;;;;;;;25.83;16.52;;;6.50;99.90;;;;;;4784975;29;20060;-86
2022/11/18 07:54:15;;;;;;;28.92;17.52;;;8.20;99.90;;;;;;4799378;29;20130;-86
2022/11/18 07:56:41;;;;;;;30.52;16.92;;;7.60;99.90;;;;;;4800899;29;20050;-88
2022/11/18 07:59:15;;;;;;;30.00;17.55;;;7.60;99.90;;;;;;4779144;29;20126;-87
2022/11/18 08:01:40;;;;;;;30.75;17.45;;;7.80;99.90;;;;;;4786791;29;20058;-87
2022/11/18 08:04:14;;;;;;;27.73;16.80;;;8.80;99.90;;;;;;4799961;29;20054;-87
2022/11/18 08:06:40;;;;;;;31.08;17.55;;;8.50;99.90;;;;;;4800766;29;20062;-87
2022/11/18 08:09:07;;;;;;;28.10;15.80;;;7.60;99.90;;;;;;4800576;29;20125;-87
2022/11/18 08:11:39;;;;;;;29.77;17.83;;;7.70;99.90;;;;;;4801837;29;20054;-88
2022/11/18 08:14:10;;;;;;;28.60;17.00;;;7.70;99.90;;;;;;4786063;29;20169;-86
2022/11/18 08:16:35;;;;;;;30.02;17.02;;;7.70;99.90;;;;;;4786406;29;20165;-87
2022/11/18 08:19:04;;;;;;;27.73;16.15;;;7.70;99.90;;;;;;4783967;29;20875;-87
2022/11/18 08:21:32;;;;;;;30.73;17.83;;;6.50;99.90;;;;;;4790080;29;20164;-86
2022/11/18 08:24:01;;;;;;;30.63;17.10;;;7.80;99.90;;;;;;4785598;29;20058;-87
2022/11/18 08:26:28;;;;;;;27.42;16.80;;;7.80;99.90;;;;;;4786546;29;20535;-86
2022/11/18 08:28:54;;;;;;;26.73;16.08;;;7.60;99.90;;;;;;4791591;29;20077;-88
2022/11/18 08:31:25;;;;;;;29.40;16.85;;;7.60;99.90;;;;;;4788634;29;20493;-87
2022/11/18 08:34:05;;;;;;;28.52;16.25;;;7.60;99.90;;;;;;4798195;29;20058;-87
2022/11/18 08:36:34;;;;;;;29.42;16.70;;;7.80;99.90;;;;;;4798297;29;20056;-87
2022/11/18 08:39:17;;;;;;;28.15;16.65;;;7.80;99.90;;;;;;4799527;29;20334;-88
2022/11/18 08:41:45;;;;;;;28.02;17.02;;;7.60;99.90;;;;;;4797950;29;20115;-87
2022/11/18 08:44:14;;;;;;;29.73;18.02;;;7.60;99.90;;;;;;4768622;29;20050;-87
2022/11/18 08:46:46;;;;;;;27.52;16.30;;;7.70;99.90;;;;;;4799668;29;20046;-87
2022/11/18 08:49:16;;;;;;;25.27;15.75;;;7.80;99.90;;;;;;4786148;29;20197;-87
2022/11/18 08:51:45;;;;;;;27.13;15.93;;;7.70;99.90;;;;;;4790771;29;20123;-87
2022/11/18 08:54:14;;;;;;;30.58;16.67;;;7.70;99.90;;;;;;4785285;29;20129;-87
2022/11/18 08:56:40;;;;;;;33.55;17.63;;;8.60;99.90;;;;;;4789679;29;20054;-86
2022/11/18 08:59:08;;;;;;;27.25;16.80;;;7.70;99.90;;;;;;4785598;29;20042;-87
2022/11/18 09:01:44;;;;;;;27.45;16.52;;;7.70;99.90;;;;;;4786657;29;20493;-85
2022/11/18 09:04:13;;;;;;;26.85;16.52;;;7.90;99.90;;;;;;4771999;29;20078;-87
2022/11/18 09:06:39;;;;;;;28.63;16.33;;;7.90;99.90;;;;;;4786935;29;20134;-88
2022/11/18 09:09:06;;;;;;;26.63;16.73;;;7.90;99.90;;;;;;4785571;29;20164;-87
2022/11/18 09:11:33;;;;;;;33.08;17.65;;;8.00;99.90;;;;;;4800390;29;20632;-87
2022/11/18 09:14:00;;;;;;;26.45;16.80;;;7.90;99.90;;;;;;4789066;29;20149;-87
2022/11/18 09:16:30;;;;;;;27.35;15.75;;;8.20;99.90;;;;;;4789006;29;20053;-87
2022/11/18 09:19:01;;;;;;;26.58;15.70;;;8.10;99.90;;;;;;4784399;29;20110;-88
2022/11/18 09:21:30;;;;;;;28.13;16.10;;;8.00;99.90;;;;;;4777827;29;20050;-87
2022/11/18 09:24:02;;;;;;;29.27;16.60;;;7.90;99.90;;;;;;4795764;29;20053;-88
2022/11/18 09:26:27;;;;;;;29.58;16.00;;;7.70;99.90;;;;;;4768595;29;20125;-88
2022/11/18 09:28:56;;;;;;;31.80;16.95;;;8.10;99.90;;;;;;4779321;29;20053;-87
2022/11/18 09:31:25;;;;;;;27.77;16.35;;;8.00;99.90;;;;;;4783641;29;20086;-88
2022/11/18 09:34:02;;;;;;;33.75;17.20;;;7.90;99.90;;;;;;4798264;29;20106;-87
2022/11/18 09:36:29;;;;;;;26.77;14.93;;;8.00;99.90;;;;;;4796320;29;20090;-88
2022/11/18 09:38:54;;;;;;;25.73;13.43;;;7.80;99.90;;;;;;4794523;29;20125;-87
2022/11/18 09:41:46;;;;;;;22.92;14.40;;;7.90;99.90;;;;;;4767973;29;20531;-87
2022/11/18 09:44:42;;;;;;;25.92;13.98;;;7.70;99.90;;;;;;4779169;29;20065;-88
2022/11/18 09:47:33;;;;;;;23.80;13.95;;;7.70;99.90;;;;;;4808009;29;20079;-87
2022/11/18 09:50:11;;;;;;;26.42;14.50;;;7.70;99.90;;;;;;4795023;29;20059;-87
2022/11/18 09:53:02;;;;;;;23.83;13.50;;;7.80;99.90;;;;;;4799762;29;20081;-88
2022/11/18 09:55:37;;;;;;;22.48;13.40;;;6.90;99.90;;;;;;4800277;29;20042;-88
2022/11/18 09:58:04;;;;;;;23.53;13.67;;;7.60;99.90;;;;;;4786903;29;20069;-87
2022/11/18 10:00:42;;;;;;;24.10;12.88;;;7.10;99.90;;;;;;4785403;29;20047;-87
2022/11/18 10:03:29;;;;;;;25.38;12.38;;;8.50;99.90;;;;;;4786396;29;20065;-87
2022/11/18 10:06:47;;;;;;;19.73;11.40;;;7.80;99.90;;;;;;4798546;29;20050;-87
2022/11/18 10:09:30;;;;;;;19.48;11.73;;;7.50;99.90;;;;;;4816076;29;20050;-88
2022/11/18 10:12:24;;;;;;;21.65;12.40;;;7.60;99.90;;;;;;4802071;29;20050;-87
2022/11/18 10:15:11;;;;;;;21.27;12.60;;;7.60;99.90;;;;;;4820348;29;20103;-86
2022/11/18 10:17:37;;;;;;;21.95;12.27;;;7.50;99.90;;;;;;4785570;29;20054;-87
2022/11/18 10:20:09;;;;;;;20.65;11.50;;;7.00;99.90;;;;;;4799702;29;20053;-86
2022/11/18 10:23:23;;;;;;;23.98;12.23;;;7.50;99.90;;;;;;4805353;29;20093;-88
2022/11/18 10:25:52;;;;;;;21.40;12.25;;;7.70;99.90;;;;;;4771083;29;20070;-87
2022/11/18 10:28:35;;;;;;;;;;;;;;;;;;;;;
2022/11/18 10:31:18;;;;;;;22.00;11.73;;;7.80;99.90;;;;;;4801792;29;20165;-89
2022/11/18 10:33:44;;;;;;;20.38;12.20;;;7.50;99.90;;;;;;4801195;29;20055;-88
2022/11/18 10:36:20;;;;;;;21.25;11.98;;;8.50;99.90;;;;;;4774614;29;20706;-88
2022/11/18 10:38:48;;;;;;;21.67;12.05;;;6.30;99.90;;;;;;4794772;29;20139;-88
2022/11/18 10:41:17;;;;;;;23.10;12.48;;;7.70;99.90;;;;;;4816665;29;20051;-87
2022/11/18 10:43:50;;;;;;;21.30;11.88;;;8.00;99.90;;;;;;4801778;29;20144;-87
2022/11/18 10:46:26;;;;;;;21.88;13.02;;;7.70;99.90;;;;;;4796766;29;20058;-88
2022/11/18 10:49:07;;;;;;;22.00;11.32;;;7.70;99.90;;;;;;4803051;29;20082;-88
2022/11/18 10:51:37;;;;;;;21.80;12.40;;;7.70;99.90;;;;;;4784106;29;20151;-88
2022/11/18 10:54:21;;;;;;;22.75;12.23;;;7.80;99.90;;;;;;4795063;29;20154;-88
2022/11/18 10:56:59;;;;;;;19.33;11.88;;;8.10;99.90;;;;;;4783589;29;20509;-88
2022/11/18 10:59:35;;;;;;;24.38;12.52;;;7.80;99.90;;;;;;4794862;29;20061;-88
2022/11/18 11:02:19;;;;;;;;;;;7.90;99.90;;;;;;4796479;29;20082;-88
2022/11/18 11:04:49;;;;;;;21.48;11.32;;;7.90;99.90;;;;;;4782848;29;19925;-87
2022/11/18 11:07:32;;;;;;;21.38;11.88;;;7.80;99.90;;;;;;4779154;29;20070;-89
2022/11/18 11:10:22;;;;;;;22.48;12.38;;;9.70;99.90;;;;;;4794754;29;20086;-87
2022/11/18 11:12:56;;;;;;;21.45;12.45;;;6.70;99.90;;;;;;4796919;29;20194;-88
2022/11/18 11:15:38;;;;;;;23.13;12.38;;;7.10;99.90;;;;;;4798332;29;20675;-87
2022/11/18 11:21:13;;;;;;;;;;;;;;;;;;;;;
2022/11/18 11:23:40;;;;;;;19.55;11.55;;;7.90;99.90;;;;;;4794630;29;20589;-86
2022/11/18 11:26:20;;;;;;;19.23;11.32;;;6.80;99.90;;;;;;4797083;29;20578;-87
2022/11/18 11:29:21;;;;;;;19.17;11.48;;;8.00;99.90;;;;;;4798116;29;20055;-88
2022/11/18 11:32:14;;;;;;;18.67;11.07;;;8.00;99.90;;;;;;4794718;29;20100;-87
2022/11/18 11:35:01;;;;;;;18.65;10.25;;;8.00;99.90;;;;;;4797991;29;20047;-88
2022/11/18 11:37:50;;;;;;;19.83;11.35;;;8.30;99.90;;;;;;4783163;29;20071;-87
2022/11/18 11:40:55;;;;;;;17.65;10.82;;;7.80;99.90;;;;;;4783009;29;20088;-87
2022/11/18 11:43:38;;;;;;;21.30;11.05;;;7.90;99.90;;;;;;4804000;29;20054;-88
2022/11/18 11:46:38;;;;;;;20.88;11.02;;;7.80;99.90;;;;;;4795821;29;20059;-88
2022/11/18 11:49:23;;;;;;;18.50;9.93;;;7.80;99.90;;;;;;4783820;29;20054;-86
2022/11/18 11:52:03;;;;;;;13.85;9.65;;;6.40;99.90;;;;;;4794195;29;20051;-88
2022/11/18 11:55:14;;;;;;;20.65;10.20;;;7.90;99.90;;;;;;4794264;29;20051;-88
2022/11/18 11:57:48;;;;;;;20.35;11.55;;;7.70;99.90;;;;;;4810748;29;20070;-88
2022/11/18 12:00:16;;;;;;;17.20;10.15;;;7.90;99.90;;;;;;4795667;29;20053;-88
2022/11/18 12:02:54;;;;;;;19.23;10.77;;;7.70;99.90;;;;;;4793215;29;20112;-87
2022/11/18 12:05:33;;;;;;;18.75;10.68;;;9.50;99.90;;;;;;4811466;29;20922;-88
2022/11/18 12:08:24;;;;;;;18.70;11.52;;;7.90;99.90;;;;;;4781037;29;20142;-87
2022/11/18 12:11:20;;;;;;;15.00;9.98;;;7.70;99.90;;;;;;4782107;29;20051;-87
2022/11/18 12:14:02;;;;;;;16.05;9.75;;;7.80;99.90;;;;;;4796114;29;20505;-87
2022/11/18 12:17:12;;;;;;;18.77;10.18;;;7.50;99.90;;;;;;4795292;29;20196;-88
2022/11/18 12:19:38;;;;;;;16.48;10.10;;;7.30;99.90;;;;;;4697118;30;20045;-87
2022/11/18 12:22:07;;;;;;;19.60;9.68;;;7.50;99.90;;;;;;4695860;30;20089;-88
2022/11/18 12:24:43;;;;;;;18.77;10.20;;;7.60;99.90;;;;;;4722842;29;20505;-88
2022/11/18 12:27:09;;;;;;;15.77;10.40;;;7.60;99.90;;;;;;4778409;29;20806;-88
2022/11/18 12:29:42;;;;;;;16.55;10.07;;;7.20;99.90;;;;;;4796232;29;20062;-88
2022/11/18 12:32:41;;;;;;;17.35;10.27;;;7.80;99.90;;;;;;4791645;29;20596;-89
2022/11/18 12:35:15;;;;;;;16.42;9.75;;;7.70;99.90;;;;;;4796024;29;20120;-87
2022/11/18 12:37:50;;;;;;;14.77;10.02;;;7.50;99.90;;;;;;4794077;29;20063;-87
2022/11/18 12:40:40;;;;;;;13.83;9.20;;;7.70;99.90;;;;;;4794010;29;20051;-88
2022/11/18 12:43:46;;;;;;;16.75;9.63;;;7.70;99.90;;;;;;4796677;29;20308;-87
2022/11/18 12:46:33;;;;;;;17.02;9.13;;;6.00;99.90;;;;;;4781006;29;20066;-88
2022/11/18 12:49:24;;;;;;;15.27;8.98;;;7.60;99.90;;;;;;4780112;29;20520;-89
2022/11/18 12:51:52;;;;;;;13.82;8.18;;;7.60;99.90;;;;;;4795873;29;20085;-88
2022/11/18 12:54:40;;;;;;;13.30;8.75;;;7.70;99.90;;;;;;4779410;29;20493;-88
2022/11/18 12:57:14;;;;;;;16.25;9.23;;;7.60;99.90;;;;;;4796222;29;20576;-87
2022/11/18 12:59:40;;;;;;;14.80;8.23;;;8.10;99.90;;;;;;4795516;29;20066;-88
2022/11/18 13:02:29;;;;;;;18.20;9.00;;;7.50;99.90;;;;;;4777632;29;20057;-88
2022/11/18 13:05:24;;;;;;;13.27;8.25;;;7.40;99.90;;;;;;4796871;29;20098;-88
2022/11/18 13:08:15;;;;;;;13.90;8.80;;;7.40;99.90;;;;;;4777397;29;20838;-87
2022/11/18 13:11:43;;;;;;;17.35;9.63;;;7.50;99.90;;;;;;4796165;29;20126;-87
2022/11/18 13:13:46;;;;;;;15.18;8.88;;;7.00;99.90;;;;;;4792700;29;20505;-87
2022/11/18 13:19:19;;;;;;;14.35;9.10;;;7.50;99.90;;;;;;4814019;29;20604;-88
2022/11/18 13:24:58;;;;;;;13.23;8.77;;;7.40;99.90;;;;;;4790699;29;20059;-87
2022/11/18 13:27:36;;;;;;;16.10;8.98;;;7.40;99.90;;;;;;4782615;29;20055;-87
2022/11/18 13:30:12;;;;;;;14.70;8.40;;;7.60;99.90;;;;;;4793472;29;20181;-88
2022/11/18 13:32:47;;;;;;;15.27;7.35;;;7.50;99.90;;;;;;4776824;29;20610;-88
2022/11/18 13:35:21;;;;;;;16.20;7.83;;;8.10;99.90;;;;;;4772839;29;20051;-88
2022/11/18 13:37:53;;;;;;;15.23;7.28;;;7.40;99.90;;;;;;4775394;29;20069;-87
2022/11/18 13:40:28;;;;;;;10.60;7.10;;;6.80;99.90;;;;;;4780146;29;20493;-88
2022/11/18 13:42:54;;;;;;;13.50;8.07;;;9.00;99.90;;;;;;4793696;29;20650;-88